Time;durP1;ratioP1;P1;durP2;ratioP2;P2;SDS_P1;SDS_P2;PMS_P1;PMS_P2;Temp;Humidity;BMP_temperature;BMP_pressure;BME280_temperature;BME280_humidity;BME280_pressure;Samples;Min_cycle;Max_cycle;Signal;HPM_P1;HPM_P2
2021/01/13 00:01:06;;;;;;;10.48;4.07;;;1.20;85.20;;;;;;4930996;29;20019;-81
2021/01/13 00:04:20;;;;;;;;;;;;;;;;;;;;;
2021/01/13 00:07:23;;;;;;;9.50;3.70;;;1.20;85.30;;;;;;4954993;29;20042;-83
2021/01/13 00:10:24;;;;;;;6.38;3.00;;;1.30;85.60;;;;;;4924310;29;20035;-83
2021/01/13 00:13:15;;;;;;;7.95;3.70;;;1.30;86.00;;;;;;4933800;29;20082;-83
2021/01/13 00:15:56;;;;;;;6.25;2.95;;;1.30;85.40;;;;;;4916278;29;20467;-83
2021/01/13 00:18:40;;;;;;;9.73;3.75;;;1.30;85.60;;;;;;4938081;29;20487;-83
2021/01/13 00:21:14;;;;;;;6.47;2.95;;;1.40;85.90;;;;;;4938501;29;20380;-83
2021/01/13 00:23:46;;;;;;;6.63;3.00;;;1.40;86.00;;;;;;4938335;29;20114;-82
2021/01/13 00:26:21;;;;;;;6.55;3.13;;;1.50;86.20;;;;;;4938379;29;20058;-82
2021/01/13 00:28:50;;;;;;;4.43;2.03;;;1.60;86.20;;;;;;4955385;29;20031;-82
2021/01/13 00:31:16;;;;;;;4.38;2.67;;;1.50;85.90;;;;;;4937945;29;20100;-82
2021/01/13 00:33:49;;;;;;;8.50;3.47;;;1.60;85.90;;;;;;4938195;29;20034;-82
2021/01/13 00:36:26;;;;;;;6.28;2.50;;;1.60;86.00;;;;;;4936756;29;20471;-82
2021/01/13 00:38:52;;;;;;;11.38;4.22;;;1.60;86.10;;;;;;4937930;29;20118;-82
2021/01/13 00:41:18;;;;;;;8.07;3.08;;;1.70;86.00;;;;;;4938173;29;20526;-82
2021/01/13 00:43:45;;;;;;;7.03;3.17;;;1.60;85.90;;;;;;4937778;29;20023;-82
2021/01/13 00:46:11;;;;;;;5.97;2.50;;;1.70;85.90;;;;;;4921984;29;20086;-81
2021/01/13 00:48:36;;;;;;;4.93;2.15;;;1.70;86.10;;;;;;4920311;29;20118;-82
2021/01/13 00:51:03;;;;;;;12.55;4.57;;;1.70;86.20;;;;;;4921941;29;20039;-82
2021/01/13 00:53:29;;;;;;;9.73;4.10;;;1.80;86.30;;;;;;4937940;29;20489;-82
2021/01/13 00:55:54;;;;;;;11.88;4.47;;;1.80;86.30;;;;;;4921228;29;20106;-82
2021/01/13 00:58:23;;;;;;;12.45;4.43;;;1.80;86.30;;;;;;4955179;29;20378;-82
2021/01/13 01:00:52;;;;;;;8.32;3.30;;;1.90;86.30;;;;;;4937582;29;20482;-84
2021/01/13 01:03:18;;;;;;;6.20;3.13;;;1.90;86.30;;;;;;4919324;29;20038;-84
2021/01/13 01:05:51;;;;;;;14.43;5.30;;;1.80;86.20;;;;;;4937766;29;20652;-84
2021/01/13 01:08:17;;;;;;;13.27;4.85;;;1.90;86.30;;;;;;4922061;29;20087;-84
2021/01/13 01:10:53;;;;;;;11.25;4.07;;;2.00;86.30;;;;;;4933575;29;20107;-84
2021/01/13 01:13:19;;;;;;;4.28;1.80;;;2.00;86.20;;;;;;4938880;29;20494;-84
2021/01/13 01:15:45;;;;;;;11.05;4.88;;;2.00;86.20;;;;;;4938703;29;20023;-84
2021/01/13 01:18:11;;;;;;;12.50;5.60;;;2.00;86.20;;;;;;4936813;29;20440;-84
2021/01/13 01:20:36;;;;;;;12.55;5.22;;;2.00;86.40;;;;;;4937421;29;20019;-84
2021/01/13 01:23:03;;;;;;;13.57;4.57;;;1.90;86.80;;;;;;4937488;29;20027;-84
2021/01/13 01:25:30;;;;;;;7.60;2.70;;;2.00;86.10;;;;;;4937174;29;20034;-84
2021/01/13 01:27:58;;;;;;;12.65;4.82;;;2.10;85.90;;;;;;4937567;29;20487;-84
2021/01/13 01:30:25;;;;;;;7.70;3.25;;;2.00;85.90;;;;;;4934630;29;20033;-83
2021/01/13 01:32:52;;;;;;;11.88;5.00;;;2.10;86.00;;;;;;4936945;29;20035;-84
2021/01/13 01:35:18;;;;;;;5.93;2.45;;;2.00;85.90;;;;;;4937567;29;20027;-83
2021/01/13 01:37:44;;;;;;;7.15;3.20;;;2.10;86.00;;;;;;4937172;29;20435;-84
2021/01/13 01:40:15;;;;;;;13.88;5.20;;;2.10;86.20;;;;;;4937210;29;20490;-84
2021/01/13 01:42:49;;;;;;;9.52;4.25;;;2.00;86.20;;;;;;4937085;29;20027;-84
2021/01/13 01:45:17;;;;;;;;;;;2.10;86.20;;;;;;4937739;29;20098;-84
2021/01/13 01:47:58;;;;;;;10.40;4.50;;;2.10;86.20;;;;;;4954759;28;20012;-84
2021/01/13 01:50:33;;;;;;;8.00;3.40;;;2.10;86.00;;;;;;4937227;29;20102;-83
2021/01/13 01:53:05;;;;;;;;;;;2.20;86.10;;;;;;4937549;29;20411;-83
2021/01/13 01:55:42;;;;;;;7.38;3.85;;;2.10;86.10;;;;;;4932742;29;19906;-82
2021/01/13 01:58:10;;;;;;;9.73;4.45;;;2.10;86.10;;;;;;4935510;29;20034;-82
2021/01/13 02:00:37;;;;;;;6.63;3.40;;;2.10;86.00;;;;;;4937275;29;20382;-82
2021/01/13 02:03:21;;;;;;;5.35;2.10;;;2.10;85.90;;;;;;4937072;29;20039;-82
2021/01/13 02:05:49;;;;;;;12.18;5.35;;;2.10;85.80;;;;;;4937098;29;20027;-82
2021/01/13 02:08:21;;;;;;;8.15;4.07;;;2.00;85.30;;;;;;4936988;29;20055;-83
2021/01/13 02:10:48;;;;;;;4.68;2.55;;;1.90;85.10;;;;;;4932725;29;20027;-83
2021/01/13 02:13:15;;;;;;;10.73;5.28;;;1.80;85.10;;;;;;4937299;29;20082;-82
2021/01/13 02:15:46;;;;;;;11.27;5.10;;;1.70;85.00;;;;;;4940895;29;20043;-83
2021/01/13 02:18:25;;;;;;;12.32;4.28;;;1.60;85.10;;;;;;4939436;29;20058;-81
2021/01/13 02:20:54;;;;;;;5.60;3.13;;;1.50;85.10;;;;;;4957661;29;20015;-81
2021/01/13 02:23:35;;;;;;;7.05;3.47;;;1.60;85.30;;;;;;4924766;29;20035;-81
2021/01/13 02:26:39;;;;;;;11.02;4.10;;;1.50;85.40;;;;;;4940403;29;20122;-82
2021/01/13 02:29:08;;;;;;;8.18;3.65;;;1.50;85.40;;;;;;4936963;29;20023;-81
2021/01/13 02:31:52;;;;;;;11.60;4.95;;;1.50;85.40;;;;;;4939125;29;20028;-82
2021/01/13 02:34:36;;;;;;;10.00;4.85;;;1.50;85.50;;;;;;4939993;29;20023;-81
2021/01/13 02:37:20;;;;;;;6.88;2.75;;;1.40;85.60;;;;;;4940055;29;20563;-81
2021/01/13 02:39:48;;;;;;;8.00;3.40;;;1.50;85.80;;;;;;4940258;29;20023;-82
2021/01/13 02:42:30;;;;;;;5.78;3.05;;;1.60;86.00;;;;;;4939865;29;20030;-82
2021/01/13 02:45:16;;;;;;;5.97;3.08;;;1.50;86.10;;;;;;4938382;29;20035;-81
2021/01/13 02:47:57;;;;;;;6.45;3.47;;;1.60;86.10;;;;;;4957363;29;20443;-81
2021/01/13 02:50:27;;;;;;;1.63;1.15;;;1.60;86.10;;;;;;4940111;29;20102;-81
2021/01/13 02:53:31;;;;;;;3.35;1.80;;;1.70;86.10;;;;;;4940078;29;20059;-81
2021/01/13 02:55:57;;;;;;;7.45;3.08;;;1.70;86.10;;;;;;4923519;29;20038;-81
2021/01/13 02:58:27;;;;;;;13.10;4.13;;;1.70;86.10;;;;;;4939967;29;20035;-81
2021/01/13 03:00:54;;;;;;;9.15;3.80;;;1.80;86.70;;;;;;4940007;29;20375;-81
2021/01/13 03:03:20;;;;;;;14.38;6.07;;;1.70;85.70;;;;;;4939754;29;20042;-81
2021/01/13 03:05:46;;;;;;;8.38;3.45;;;1.70;85.70;;;;;;4939496;29;20027;-81
2021/01/13 03:08:13;;;;;;;9.57;4.38;;;1.70;85.80;;;;;;4924104;29;20517;-81
2021/01/13 03:10:41;;;;;;;12.07;5.32;;;1.60;85.60;;;;;;4922353;29;20034;-81
2021/01/13 03:13:10;;;;;;;13.15;4.75;;;1.70;85.60;;;;;;4939939;29;20040;-81
2021/01/13 03:15:38;;;;;;;9.00;3.35;;;1.60;85.60;;;;;;4939178;29;20023;-81
2021/01/13 03:18:07;;;;;;;6.22;2.70;;;1.50;85.30;;;;;;4939424;29;20102;-80
2021/01/13 03:20:51;;;;;;;10.60;4.70;;;1.60;85.20;;;;;;4923757;29;20031;-81
2021/01/13 03:23:30;;;;;;;16.17;5.13;;;1.50;85.00;;;;;;4956145;29;20454;-80
2021/01/13 03:26:01;;;;;;;6.47;3.25;;;1.40;84.90;;;;;;4938678;29;20027;-80
2021/01/13 03:28:41;;;;;;;12.68;4.78;;;1.30;84.80;;;;;;4939754;29;20110;-80
2021/01/13 03:31:10;;;;;;;9.65;3.95;;;1.30;85.00;;;;;;4935663;29;20047;-80
2021/01/13 03:34:01;;;;;;;11.68;4.43;;;1.30;85.00;;;;;;4937034;29;20023;-80
2021/01/13 03:36:29;;;;;;;9.80;2.78;;;1.20;85.30;;;;;;4954433;29;20019;-80
2021/01/13 03:39:06;;;;;;;5.25;2.40;;;1.20;85.10;;;;;;4939125;29;20371;-79
2021/01/13 03:41:46;;;;;;;9.20;3.50;;;1.20;85.20;;;;;;4935090;29;20031;-79
2021/01/13 03:44:14;;;;;;;8.63;3.95;;;1.20;85.50;;;;;;4937228;29;20031;-79
2021/01/13 03:46:40;;;;;;;8.60;3.65;;;1.30;85.70;;;;;;4938855;29;20500;-79
2021/01/13 03:49:08;;;;;;;11.68;5.07;;;1.30;85.70;;;;;;4938859;29;20495;-79
2021/01/13 03:52:03;;;;;;;2.33;1.73;;;1.30;85.70;;;;;;4955612;29;20387;-79
2021/01/13 03:54:35;;;;;;;8.98;3.75;;;1.30;85.60;;;;;;4956156;29;20497;-80
2021/01/13 03:57:07;;;;;;;6.45;2.88;;;1.40;85.80;;;;;;4955929;29;20034;-80
2021/01/13 03:59:42;;;;;;;11.98;5.13;;;1.40;85.70;;;;;;4939725;29;20031;-80
2021/01/13 04:02:08;;;;;;;10.65;3.63;;;1.40;85.70;;;;;;4959455;29;20019;-80
2021/01/13 04:04:54;;;;;;;6.28;2.97;;;1.40;85.70;;;;;;4939615;29;20038;-80
2021/01/13 04:07:22;;;;;;;13.95;5.15;;;1.40;85.60;;;;;;4935015;29;20027;-81
2021/01/13 04:09:48;;;;;;;7.45;3.63;;;1.40;85.80;;;;;;4939071;29;20073;-80
2021/01/13 04:12:16;;;;;;;5.80;1.95;;;1.40;85.70;;;;;;4938490;29;20055;-80
2021/01/13 04:14:53;;;;;;;6.28;3.03;;;1.40;85.90;;;;;;4938353;29;20118;-80
2021/01/13 04:17:24;;;;;;;3.95;2.33;;;1.50;85.90;;;;;;4955430;29;20059;-80
2021/01/13 04:19:50;;;;;;;8.60;3.85;;;1.50;85.80;;;;;;4955604;29;20065;-80
2021/01/13 04:22:18;;;;;;;4.78;2.28;;;1.50;85.80;;;;;;4921964;29;20039;-80
2021/01/13 04:24:48;;;;;;;6.38;3.00;;;1.50;85.80;;;;;;4938470;29;20015;-80
2021/01/13 04:27:18;;;;;;;2.83;1.60;;;1.50;85.70;;;;;;4938423;29;20094;-80
2021/01/13 04:29:45;;;;;;;7.80;3.33;;;1.50;85.60;;;;;;4938301;29;20026;-80
2021/01/13 04:32:12;;;;;;;11.75;4.05;;;1.50;85.70;;;;;;4938450;29;20465;-80
2021/01/13 04:34:39;;;;;;;5.53;2.47;;;1.50;85.80;;;;;;4955163;29;20424;-80
2021/01/13 04:37:07;;;;;;;7.60;3.17;;;1.50;86.30;;;;;;4937233;29;20085;-80
2021/01/13 04:39:34;;;;;;;9.35;3.53;;;1.50;85.70;;;;;;4938138;29;20078;-80
2021/01/13 04:42:09;;;;;;;14.25;4.45;;;1.40;85.50;;;;;;4937974;29;20033;-80
2021/01/13 04:44:45;;;;;;;11.30;3.50;;;1.50;85.70;;;;;;4937830;29;20102;-80
2021/01/13 04:47:11;;;;;;;11.13;4.00;;;1.40;85.60;;;;;;4938128;29;20526;-80
2021/01/13 04:49:38;;;;;;;9.52;3.60;;;1.50;85.80;;;;;;4922049;29;20059;-80
2021/01/13 04:52:09;;;;;;;7.05;3.05;;;1.50;85.60;;;;;;4937738;29;20031;-81
2021/01/13 04:54:37;;;;;;;12.30;4.18;;;1.40;85.40;;;;;;4937828;29;20034;-80
2021/01/13 04:57:08;;;;;;;10.88;4.15;;;1.40;85.60;;;;;;4937781;29;20023;-80
2021/01/13 04:59:53;;;;;;;7.22;2.92;;;1.40;85.60;;;;;;4955022;29;20428;-79
2021/01/13 05:02:41;;;;;;;8.48;3.38;;;1.40;85.40;;;;;;4936341;29;20023;-80
2021/01/13 05:05:07;;;;;;;7.20;3.17;;;1.40;85.40;;;;;;4937687;29;20106;-80
2021/01/13 05:07:40;;;;;;;12.20;2.92;;;1.40;85.40;;;;;;4954779;29;20030;-80
2021/01/13 05:10:06;;;;;;;6.95;3.25;;;1.30;85.30;;;;;;4937713;29;20024;-79
2021/01/13 05:12:57;;;;;;;5.60;2.58;;;1.30;85.40;;;;;;4937310;29;20440;-80
2021/01/13 05:15:28;;;;;;;13.93;4.47;;;1.30;85.30;;;;;;4934537;29;20027;-80
2021/01/13 05:18:11;;;;;;;11.05;4.72;;;1.30;85.10;;;;;;4937418;29;20468;-79
2021/01/13 05:20:53;;;;;;;11.18;4.22;;;1.20;84.80;;;;;;4934009;29;20015;-79
2021/01/13 05:23:22;;;;;;;9.88;4.25;;;1.10;84.60;;;;;;4954652;29;20098;-79
2021/01/13 05:29:36;;;;;;;16.83;5.18;;;1.00;84.60;;;;;;4948970;28;20098;-79
2021/01/13 05:32:03;;;;;;;10.68;3.58;;;0.90;84.50;;;;;;4959848;28;20032;-79
2021/01/13 05:34:31;;;;;;;12.05;4.22;;;0.90;84.50;;;;;;4955916;29;20129;-79
2021/01/13 05:37:12;;;;;;;7.88;3.47;;;0.80;84.50;;;;;;4956797;29;20440;-79
2021/01/13 05:39:41;;;;;;;9.98;3.63;;;0.80;84.60;;;;;;4938314;29;20046;-79
2021/01/13 05:42:07;;;;;;;10.80;4.82;;;0.80;84.90;;;;;;4923326;29;20361;-79
2021/01/13 05:44:33;;;;;;;6.72;2.65;;;0.80;84.90;;;;;;4937339;29;20122;-79
2021/01/13 05:47:04;;;;;;;20.35;9.02;;;0.80;85.00;;;;;;4954302;29;20127;-79
2021/01/13 05:49:30;;;;;;;2.97;1.77;;;0.80;85.30;;;;;;4937344;29;20487;-78
2021/01/13 05:52:07;;;;;;;13.60;4.93;;;0.80;85.70;;;;;;4941414;29;20046;-78
2021/01/13 05:54:37;;;;;;;8.68;3.30;;;0.80;84.80;;;;;;4942222;29;20026;-78
2021/01/13 05:57:04;;;;;;;11.27;4.45;;;0.80;84.60;;;;;;4958385;29;20109;-79
2021/01/13 05:59:34;;;;;;;10.55;4.10;;;0.70;84.40;;;;;;4925601;29;20110;-79
2021/01/13 06:02:03;;;;;;;13.63;4.45;;;0.70;84.40;;;;;;4940686;29;20027;-80
2021/01/13 06:04:29;;;;;;;6.32;2.30;;;0.60;84.30;;;;;;4926543;29;20030;-80
2021/01/13 06:07:17;;;;;;;9.00;3.67;;;0.60;84.30;;;;;;4937896;29;20027;-80
2021/01/13 06:09:53;;;;;;;14.27;4.43;;;0.50;84.20;;;;;;4943051;29;20019;-80
2021/01/13 06:12:22;;;;;;;10.35;3.30;;;0.40;84.10;;;;;;4925232;29;20074;-80
2021/01/13 06:14:49;;;;;;;6.18;2.63;;;0.40;84.20;;;;;;4958660;29;20031;-79
2021/01/13 06:17:27;;;;;;;9.43;3.75;;;0.40;84.40;;;;;;4941292;29;20019;-79
2021/01/13 06:27:40;;;;;;;11.10;4.57;;;0.40;84.50;;;;;;4845346;29;20030;-85
2021/01/13 06:30:17;;;;;;;5.28;2.35;;;0.30;84.40;;;;;;4845316;29;20046;-86
2021/01/13 06:32:53;;;;;;;11.55;4.50;;;0.30;84.40;;;;;;4848327;29;20062;-86
2021/01/13 06:35:42;;;;;;;3.53;1.80;;;0.20;84.40;;;;;;4897857;29;20032;-86
2021/01/13 06:38:38;;;;;;;10.18;3.83;;;0.20;84.50;;;;;;4916783;29;20043;-86
2021/01/13 06:41:03;;;;;;;8.27;3.28;;;0.20;84.40;;;;;;4920187;29;20039;-86
2021/01/13 06:43:32;;;;;;;5.78;1.75;;;0.20;84.50;;;;;;4908027;29;20496;-86
2021/01/13 06:53:09;;;;;;;10.43;4.38;;;0.00;84.40;;;;;;4958615;29;20070;-83
2021/01/13 06:55:38;;;;;;;13.77;4.13;;;0.10;85.00;;;;;;4943479;29;20379;-82
2021/01/13 06:58:13;;;;;;;7.93;3.53;;;0.20;85.40;;;;;;4938197;29;20027;-86
2021/01/13 07:00:39;;;;;;;11.10;4.47;;;0.20;85.40;;;;;;4939652;29;20051;-84
2021/01/13 07:03:29;;;;;;;15.23;6.13;;;0.30;85.40;;;;;;4940334;29;20043;-86
2021/01/13 07:05:56;;;;;;;13.93;5.55;;;0.30;85.30;;;;;;4938329;29;20061;-85
2021/01/13 07:08:22;;;;;;;4.40;1.75;;;0.40;84.80;;;;;;4940028;29;20028;-84
2021/01/13 07:10:59;;;;;;;10.27;4.25;;;0.30;84.60;;;;;;4941884;29;20082;-84
2021/01/13 07:13:26;;;;;;;10.10;4.00;;;0.30;84.60;;;;;;4937374;29;20131;-85
2021/01/13 07:15:58;;;;;;;3.95;1.85;;;0.20;84.50;;;;;;4939791;29;20031;-85
2021/01/13 07:18:23;;;;;;;10.02;3.80;;;0.30;84.80;;;;;;4941120;29;20023;-88
2021/01/13 07:20:49;;;;;;;8.57;3.22;;;0.20;84.70;;;;;;4924872;29;20079;-93
2021/01/13 07:23:17;;;;;;;10.07;3.70;;;0.20;84.80;;;;;;4939947;29;20527;-84
2021/01/13 07:25:50;;;;;;;17.13;5.32;;;0.30;85.00;;;;;;4940116;29;20023;-87
2021/01/13 07:28:16;;;;;;;10.52;4.60;;;0.30;85.10;;;;;;4939376;29;20633;-87
2021/01/13 07:30:43;;;;;;;13.43;4.22;;;0.30;85.10;;;;;;4940062;29;20490;-87
2021/01/13 07:33:13;;;;;;;12.40;5.25;;;0.30;85.10;;;;;;4937788;29;20043;-86
2021/01/13 07:35:50;;;;;;;12.43;4.15;;;0.40;85.30;;;;;;4923894;29;20034;-87
2021/01/13 07:38:18;;;;;;;8.20;3.78;;;0.50;85.30;;;;;;4939391;29;20035;-87
2021/01/13 07:40:56;;;;;;;9.88;4.10;;;0.40;85.60;;;;;;4918692;29;20031;-86
2021/01/13 07:43:57;;;;;;;16.08;4.82;;;0.40;85.10;;;;;;4938399;29;20030;-86
2021/01/13 07:46:31;;;;;;;9.55;3.92;;;0.50;85.70;;;;;;4939953;29;20105;-87
2021/01/13 07:49:18;;;;;;;9.98;3.65;;;0.60;85.70;;;;;;4940553;29;20098;-88
2021/01/13 07:51:48;;;;;;;10.07;4.38;;;0.70;85.60;;;;;;4938229;29;20035;-87
2021/01/13 07:54:26;;;;;;;9.30;3.72;;;0.70;85.60;;;;;;4941005;29;20118;-87
2021/01/13 07:56:57;;;;;;;9.50;3.63;;;0.70;85.30;;;;;;4937813;29;20106;-88
2021/01/13 07:59:55;;;;;;;10.18;4.13;;;0.70;85.70;;;;;;4939582;29;20027;-87
2021/01/13 08:02:45;;;;;;;14.35;4.95;;;0.70;85.10;;;;;;4940064;29;20027;-88
2021/01/13 08:05:24;;;;;;;20.00;7.18;;;0.70;85.00;;;;;;4930483;29;20030;-89
2021/01/13 08:08:09;;;;;;;16.38;5.82;;;0.70;85.20;;;;;;4935723;29;20375;-86
2021/01/13 08:10:40;;;;;;;10.63;4.18;;;0.70;85.10;;;;;;4939083;28;20050;-87
2021/01/13 08:13:30;;;;;;;7.05;2.83;;;0.70;85.10;;;;;;4939369;29;20043;-87
2021/01/13 08:16:50;;;;;;;11.63;5.25;;;0.70;85.40;;;;;;4936098;29;20346;-86
2021/01/13 08:19:40;;;;;;;11.55;4.90;;;0.80;85.80;;;;;;4937226;29;20027;-86
2021/01/13 08:22:15;;;;;;;15.85;6.70;;;0.90;85.90;;;;;;4935970;29;20023;-86
2021/01/13 08:24:43;;;;;;;;;;;0.90;85.80;;;;;;4940358;29;20144;-86
2021/01/13 08:27:09;;;;;;;8.23;3.90;;;1.10;86.20;;;;;;4941462;29;19907;-86
2021/01/13 08:29:39;;;;;;;14.80;5.47;;;1.10;86.60;;;;;;4939384;29;20121;-87
2021/01/13 08:32:12;;;;;;;5.05;2.38;;;1.30;86.70;;;;;;4936184;29;20101;-87
2021/01/13 08:34:46;;;;;;;14.15;6.07;;;1.40;86.50;;;;;;4926248;29;20028;-87
2021/01/13 08:37:13;;;;;;;4.93;2.03;;;1.50;86.40;;;;;;4938454;29;20061;-86
2021/01/13 08:39:42;;;;;;;12.80;5.40;;;1.60;87.00;;;;;;4935362;29;20015;-87
2021/01/13 08:42:24;;;;;;;10.77;5.13;;;1.60;86.30;;;;;;4923093;29;20035;-86
2021/01/13 08:44:53;;;;;;;10.93;4.95;;;1.60;85.80;;;;;;4938485;29;20019;-86
2021/01/13 08:47:20;;;;;;;10.23;4.90;;;1.60;85.70;;;;;;4938497;29;20488;-88
2021/01/13 08:49:46;;;;;;;9.35;3.85;;;1.60;85.70;;;;;;4938507;29;20404;-87
2021/01/13 08:52:23;;;;;;;7.82;2.90;;;1.60;85.40;;;;;;4938211;29;20110;-88
2021/01/13 08:54:48;;;;;;;7.25;3.38;;;1.60;85.30;;;;;;4935867;29;20031;-90
2021/01/13 08:57:15;;;;;;;13.02;4.80;;;1.60;85.50;;;;;;4938710;29;20027;-88
2021/01/13 08:59:46;;;;;;;15.95;5.95;;;1.60;85.50;;;;;;4938546;29;20493;-88
2021/01/13 09:02:17;;;;;;;13.15;5.35;;;1.60;85.50;;;;;;4938584;29;20031;-86
2021/01/13 09:04:57;;;;;;;10.50;4.72;;;1.60;85.60;;;;;;4937858;29;20027;-87
2021/01/13 09:07:26;;;;;;;6.30;3.25;;;1.60;85.60;;;;;;4936086;29;20491;-87
2021/01/13 09:10:00;;;;;;;12.80;5.38;;;1.60;85.70;;;;;;4938427;29;20031;-88
2021/01/13 09:12:33;;;;;;;9.73;3.50;;;1.70;85.90;;;;;;4936141;29;20027;-89
2021/01/13 09:15:08;;;;;;;16.38;5.15;;;1.70;85.80;;;;;;4940087;29;20019;-90
2021/01/13 09:17:34;;;;;;;;;;;1.80;85.90;;;;;;4939286;29;20031;-92
2021/01/13 09:20:06;;;;;;;6.45;3.03;;;1.80;86.10;;;;;;4938952;29;19906;-91
2021/01/13 09:22:43;;;;;;;5.00;2.60;;;1.90;86.40;;;;;;4938516;29;20526;-92
2021/01/13 09:25:17;;;;;;;5.97;2.53;;;2.00;86.40;;;;;;4937827;29;20028;-85
2021/01/13 09:27:45;;;;;;;9.75;3.15;;;2.00;86.30;;;;;;4935673;29;20038;-84
2021/01/13 09:30:36;;;;;;;6.25;2.95;;;2.10;86.30;;;;;;4938151;29;20114;-86
2021/01/13 09:33:12;;;;;;;9.05;4.10;;;2.10;85.90;;;;;;4936251;29;20510;-83
2021/01/13 09:35:44;;;;;;;10.52;3.45;;;2.20;86.20;;;;;;4933698;29;20042;-84
2021/01/13 09:38:27;;;;;;;9.30;3.88;;;2.30;86.30;;;;;;4937548;29;20027;-85
2021/01/13 09:41:04;;;;;;;12.23;4.47;;;2.40;86.30;;;;;;4936640;29;20075;-85
2021/01/13 09:43:36;;;;;;;3.42;1.60;;;2.40;86.40;;;;;;4922913;29;20362;-87
2021/01/13 09:46:08;;;;;;;9.57;4.05;;;2.40;86.10;;;;;;4934826;29;20030;-88
2021/01/13 09:48:36;;;;;;;7.13;3.42;;;2.50;86.40;;;;;;4937970;29;20051;-87
2021/01/13 09:51:12;;;;;;;5.18;2.17;;;2.60;87.40;;;;;;4937769;29;20114;-90
2021/01/13 09:53:49;;;;;;;8.30;2.75;;;2.90;87.40;;;;;;4916525;29;20039;-86
2021/01/13 09:56:15;;;;;;;4.88;2.63;;;3.00;86.80;;;;;;4921493;29;20027;-85
2021/01/13 09:58:46;;;;;;;7.93;3.42;;;3.00;85.80;;;;;;4922333;29;20031;-86
2021/01/13 10:01:31;;;;;;;6.55;3.13;;;3.00;85.30;;;;;;4937672;29;20380;-85
2021/01/13 10:03:59;;;;;;;5.57;2.83;;;2.90;85.80;;;;;;4937740;29;20027;-84
2021/01/13 10:06:31;;;;;;;1.58;1.30;;;3.00;86.90;;;;;;4919348;29;20027;-84
2021/01/13 10:09:07;;;;;;;5.10;2.40;;;3.40;88.30;;;;;;4937326;29;20023;-83
2021/01/13 10:11:33;;;;;;;10.52;3.80;;;3.60;87.70;;;;;;4937304;29;20019;-84
2021/01/13 10:14:02;;;;;;;6.13;3.05;;;3.90;87.40;;;;;;4936733;29;20162;-83
2021/01/13 10:16:29;;;;;;;6.82;3.00;;;3.90;86.40;;;;;;4937191;29;20023;-84
2021/01/13 10:19:00;;;;;;;8.93;3.70;;;3.90;85.00;;;;;;4937217;29;20461;-83
2021/01/13 10:21:42;;;;;;;6.70;1.73;;;3.60;84.40;;;;;;4937331;29;20045;-83
2021/01/13 10:24:10;;;;;;;7.38;2.95;;;3.60;85.10;;;;;;4935459;29;20111;-83
2021/01/13 10:26:44;;;;;;;7.95;3.22;;;3.70;87.60;;;;;;4936809;29;20019;-83
2021/01/13 10:29:13;;;;;;;7.22;3.33;;;4.10;88.40;;;;;;4938115;29;20110;-83
2021/01/13 10:31:42;;;;;;;5.38;1.88;;;4.40;87.30;;;;;;4937456;29;20070;-85
2021/01/13 10:34:12;;;;;;;5.13;2.08;;;4.60;87.20;;;;;;4937929;29;20027;-86
2021/01/13 10:36:45;;;;;;;4.95;2.33;;;4.60;85.40;;;;;;4941128;29;20051;-85
2021/01/13 10:39:23;;;;;;;6.70;2.88;;;4.50;85.80;;;;;;4924095;29;20063;-86
2021/01/13 10:41:51;;;;;;;6.68;2.78;;;4.70;86.10;;;;;;4940467;29;20023;-81
2021/01/13 10:44:18;;;;;;;5.82;2.67;;;4.90;86.90;;;;;;4940221;29;20476;-82
2021/01/13 10:46:51;;;;;;;7.70;2.85;;;5.00;86.10;;;;;;4941746;29;20019;-88
2021/01/13 10:49:43;;;;;;;7.10;2.60;;;5.00;85.10;;;;;;4940368;29;20527;-88
2021/01/13 10:52:20;;;;;;;6.85;2.13;;;5.00;85.40;;;;;;4937443;29;20036;-89
2021/01/13 10:54:47;;;;;;;5.97;2.17;;;5.00;85.60;;;;;;4925295;29;20464;-88
2021/01/13 10:57:15;;;;;;;7.53;2.90;;;5.00;84.40;;;;;;4937500;29;20064;-85
2021/01/13 10:59:42;;;;;;;6.05;2.80;;;5.00;85.20;;;;;;4957914;29;20043;-88
2021/01/13 11:02:09;;;;;;;9.27;3.63;;;4.90;83.90;;;;;;4943631;29;20383;-86
2021/01/13 11:04:42;;;;;;;7.30;2.45;;;4.80;84.20;;;;;;4942416;29;20053;-85
2021/01/13 11:07:14;;;;;;;5.82;2.47;;;4.90;84.90;;;;;;4936350;29;20015;-85
2021/01/13 11:09:45;;;;;;;6.78;3.08;;;5.10;85.90;;;;;;4937872;29;20086;-85
2021/01/13 11:12:22;;;;;;;8.88;2.97;;;5.30;85.90;;;;;;4939188;29;20400;-85
2021/01/13 11:14:49;;;;;;;2.92;1.50;;;5.50;86.40;;;;;;4937448;29;20510;-85
2021/01/13 11:17:22;;;;;;;3.50;2.13;;;5.80;86.90;;;;;;4940080;29;20423;-85
2021/01/13 11:19:55;;;;;;;4.85;2.33;;;6.20;86.50;;;;;;4924148;29;20435;-85
2021/01/13 11:22:50;;;;;;;5.75;2.28;;;6.50;86.80;;;;;;4957531;28;20498;-84
2021/01/13 11:25:20;;;;;;;9.95;2.50;;;6.40;84.10;;;;;;4914025;29;20027;-84
2021/01/13 11:27:59;;;;;;;4.30;1.80;;;6.40;83.60;;;;;;4939672;29;20058;-84
2021/01/13 11:30:25;;;;;;;5.85;2.25;;;6.20;81.50;;;;;;4939459;29;20023;-84
2021/01/13 11:32:59;;;;;;;9.18;2.83;;;5.90;81.10;;;;;;4939259;29;20388;-84
2021/01/13 11:35:38;;;;;;;5.27;2.07;;;5.70;82.00;;;;;;4937475;29;20027;-84
2021/01/13 11:38:42;;;;;;;6.95;2.38;;;5.50;81.80;;;;;;4939316;29;20275;-84
2021/01/13 11:41:17;;;;;;;5.90;2.25;;;5.30;81.10;;;;;;4937498;29;20027;-84
2021/01/13 11:44:40;;;;;;;6.75;2.47;;;5.10;81.30;;;;;;4939302;29;20383;-84
2021/01/13 11:47:37;;;;;;;4.53;2.03;;;5.00;82.70;;;;;;4859225;29;20022;-84
2021/01/13 11:50:14;;;;;;;7.45;3.00;;;5.00;82.40;;;;;;4855265;29;20046;-84
2021/01/13 11:52:53;;;;;;;8.60;2.65;;;5.20;83.80;;;;;;4916407;29;20107;-83
2021/01/13 11:55:27;;;;;;;9.85;2.83;;;5.40;83.30;;;;;;4919076;29;20028;-84
2021/01/13 11:58:16;;;;;;;;;;;;;;;;;;;;;
2021/01/13 12:00:45;;;;;;;6.53;2.33;;;5.10;81.50;;;;;;4935270;29;20032;-83
2021/01/13 12:03:18;;;;;;;5.70;2.42;;;5.20;83.30;;;;;;4909345;29;20465;-85
2021/01/13 12:05:50;;;;;;;4.85;2.33;;;5.50;84.00;;;;;;4907009;29;20107;-85
2021/01/13 12:08:20;;;;;;;7.07;3.08;;;5.70;83.10;;;;;;4918754;29;20038;-84
2021/01/13 12:10:55;;;;;;;1.90;1.10;;;5.60;82.00;;;;;;4918449;29;20024;-83
2021/01/13 12:13:23;;;;;;;4.22;2.13;;;5.70;82.30;;;;;;4916731;29;20380;-83
2021/01/13 12:15:51;;;;;;;6.90;2.17;;;5.70;81.50;;;;;;4919764;29;20515;-84
2021/01/13 12:18:49;;;;;;;7.25;2.45;;;5.50;80.70;;;;;;4918789;29;20070;-83
2021/01/13 12:21:14;;;;;;;6.57;2.45;;;5.30;79.80;;;;;;4910487;29;20031;-83
2021/01/13 12:23:47;;;;;;;5.95;2.53;;;5.30;81.00;;;;;;4919539;29;20084;-83
2021/01/13 12:26:19;;;;;;;7.85;3.00;;;5.10;80.10;;;;;;4919001;29;20063;-83
2021/01/13 12:28:47;;;;;;;5.90;2.38;;;5.00;80.60;;;;;;4904486;29;20053;-82
2021/01/13 12:31:17;;;;;;;5.93;2.05;;;4.80;80.20;;;;;;4920685;29;20106;-83
2021/01/13 12:33:57;;;;;;;4.95;2.30;;;4.80;80.70;;;;;;4914433;29;20035;-84
2021/01/13 12:36:25;;;;;;;4.43;2.10;;;5.00;82.20;;;;;;4917905;29;20030;-83
2021/01/13 12:38:52;;;;;;;6.82;3.17;;;5.30;83.40;;;;;;4918154;29;20380;-85
2021/01/13 12:41:24;;;;;;;3.33;1.85;;;5.20;81.40;;;;;;4903516;29;20030;-84
2021/01/13 12:43:50;;;;;;;6.40;2.95;;;5.20;81.10;;;;;;4915883;29;20051;-86
2021/01/13 12:46:26;;;;;;;6.47;2.30;;;5.00;79.90;;;;;;4918354;29;20055;-85
2021/01/13 12:48:52;;;;;;;10.13;3.13;;;4.80;79.80;;;;;;4927428;29;20103;-87
2021/01/13 12:51:18;;;;;;;8.45;2.80;;;4.60;79.00;;;;;;4936682;29;20019;-85
2021/01/13 12:53:43;;;;;;;5.53;2.47;;;4.60;80.20;;;;;;4937203;29;20039;-85
2021/01/13 12:56:32;;;;;;;5.45;2.60;;;4.60;80.80;;;;;;4936811;29;20019;-87
2021/01/13 12:58:59;;;;;;;6.15;2.55;;;4.80;82.70;;;;;;4934331;29;20023;-86
2021/01/13 13:01:25;;;;;;;6.72;2.90;;;5.20;81.90;;;;;;4936771;29;20019;-86
2021/01/13 13:03:51;;;;;;;6.63;2.60;;;5.20;82.10;;;;;;4921816;29;20123;-86
2021/01/13 13:06:44;;;;;;;4.82;2.30;;;5.40;82.20;;;;;;4937351;29;20466;-86
2021/01/13 13:09:12;;;;;;;6.88;2.67;;;5.60;82.00;;;;;;4925724;29;20503;-86
2021/01/13 13:11:38;;;;;;;8.05;2.50;;;5.70;81.80;;;;;;4937253;29;20023;-82
2021/01/13 13:14:08;;;;;;;7.22;3.00;;;5.50;80.30;;;;;;4936303;29;20043;-82
2021/01/13 13:16:37;;;;;;;5.20;2.50;;;5.30;80.00;;;;;;4921358;29;20054;-82
2021/01/13 13:19:06;;;;;;;4.90;2.13;;;5.30;80.50;;;;;;4936617;29;20030;-82
2021/01/13 13:21:32;;;;;;;7.50;3.22;;;5.30;80.80;;;;;;4936800;29;20033;-82
2021/01/13 13:24:01;;;;;;;9.23;3.67;;;5.10;80.70;;;;;;4936696;29;20546;-83
2021/01/13 13:26:26;;;;;;;8.18;3.28;;;5.10;80.00;;;;;;4920339;29;20034;-83
2021/01/13 13:28:52;;;;;;;4.95;2.38;;;4.90;80.60;;;;;;4936560;29;20035;-82
2021/01/13 13:31:19;;;;;;;2.83;1.70;;;4.90;80.60;;;;;;4948759;29;20155;-82
2021/01/13 13:33:50;;;;;;;3.85;1.88;;;4.90;81.10;;;;;;4936090;29;20027;-82
2021/01/13 13:36:17;;;;;;;7.68;2.95;;;4.80;80.50;;;;;;4936383;29;20550;-82
2021/01/13 13:38:43;;;;;;;4.82;2.28;;;4.70;80.10;;;;;;4955688;29;20146;-83
2021/01/13 13:41:10;;;;;;;7.68;3.45;;;4.70;80.50;;;;;;4940107;29;20019;-83
2021/01/13 13:43:36;;;;;;;5.75;2.63;;;4.50;79.60;;;;;;4940292;29;20464;-84
2021/01/13 13:46:22;;;;;;;7.72;3.13;;;4.50;80.30;;;;;;4942803;29;20032;-82
2021/01/13 13:48:47;;;;;;;7.80;2.75;;;4.40;80.10;;;;;;4937870;29;20102;-83